createdAt,value
2018-12-30T00:00:19.585Z,3.66
2018-12-30T00:01:19.561Z,3.66
2018-12-30T00:02:19.448Z,3.65
2018-12-30T00:03:19.353Z,3.68
2018-12-30T00:04:19.228Z,3.68
2018-12-30T00:05:40.127Z,3.68
2018-12-30T00:06:19.062Z,3.69
2018-12-30T00:07:18.982Z,3.77
2018-12-30T00:08:18.893Z,3.75
2018-12-30T00:09:18.815Z,3.74
2018-12-30T00:10:18.758Z,3.74
2018-12-30T00:11:39.667Z,3.79
2018-12-30T00:12:18.582Z,3.68
2018-12-30T00:13:18.484Z,3.69
2018-12-30T00:14:18.393Z,3.75
2018-12-30T00:15:18.382Z,3.79
2018-12-30T00:16:18.279Z,3.75
2018-12-30T00:17:39.129Z,3.80
2018-12-30T00:18:18.077Z,3.84
2018-12-30T00:19:17.980Z,3.84
2018-12-30T00:20:17.955Z,3.80
2018-12-30T00:21:17.885Z,3.87
2018-12-30T00:22:17.741Z,3.89
2018-12-30T00:23:38.660Z,3.87
2018-12-30T00:24:17.609Z,3.84
2018-12-30T00:25:17.481Z,3.82
2018-12-30T00:26:17.429Z,3.87
2018-12-30T00:27:17.317Z,3.77
2018-12-30T00:28:17.236Z,3.86
2018-12-30T00:29:38.159Z,3.86
2018-12-30T00:30:17.086Z,3.84
2018-12-30T00:31:16.983Z,3.83
2018-12-30T00:32:16.921Z,3.87
2018-12-30T00:33:16.821Z,3.83
2018-12-30T00:34:16.731Z,3.83
2018-12-30T00:35:37.656Z,3.83
2018-12-30T00:36:16.615Z,3.87
2018-12-30T00:37:16.525Z,3.84
2018-12-30T00:38:16.403Z,3.87
2018-12-30T00:39:16.318Z,3.87
2018-12-30T00:40:16.240Z,3.84
2018-12-30T00:41:37.152Z,3.83
2018-12-30T00:42:16.075Z,3.84
2018-12-30T00:43:15.986Z,3.84
2018-12-30T00:44:15.904Z,3.86
2018-12-30T00:45:15.837Z,3.83
2018-12-30T00:46:15.784Z,3.82
2018-12-30T00:47:36.655Z,3.92
2018-12-30T00:48:15.578Z,3.93
2018-12-30T00:49:15.528Z,3.84
2018-12-30T00:50:15.467Z,3.89
2018-12-30T00:51:17.084Z,3.89
2018-12-30T00:52:15.304Z,3.92
2018-12-30T00:53:36.222Z,3.80
2018-12-30T00:54:15.090Z,3.94
2018-12-30T00:55:14.999Z,3.87
2018-12-30T00:56:14.955Z,3.92
2018-12-30T00:57:14.831Z,3.89
2018-12-30T00:58:14.766Z,3.97
2018-12-30T00:59:35.648Z,3.92
2018-12-30T01:00:14.619Z,3.92
2018-12-30T01:01:14.513Z,3.83
2018-12-30T01:02:14.432Z,3.97
2018-12-30T01:03:14.334Z,4.02
2018-12-30T01:04:14.254Z,3.86
2018-12-30T01:05:35.176Z,3.92
2018-12-30T01:06:14.129Z,3.92
2018-12-30T01:07:14.006Z,3.87
2018-12-30T01:08:13.923Z,3.90
2018-12-30T01:09:13.840Z,3.93
2018-12-30T01:10:13.751Z,3.90
2018-12-30T01:11:34.656Z,3.94
2018-12-30T01:12:13.609Z,3.87
2018-12-30T01:13:13.503Z,3.83
2018-12-30T01:14:13.425Z,3.80
2018-12-30T01:15:13.405Z,3.77
2018-12-30T01:16:13.260Z,3.77
2018-12-30T01:17:34.193Z,3.75
2018-12-30T01:18:13.107Z,3.75
2018-12-30T01:19:13.001Z,3.74
2018-12-30T01:20:12.921Z,3.64
2018-12-30T01:21:12.840Z,3.77
2018-12-30T01:22:12.830Z,3.71
2018-12-30T01:23:33.723Z,3.69
2018-12-30T01:24:12.642Z,3.72
2018-12-30T01:25:12.505Z,3.66
2018-12-30T01:26:12.425Z,3.72
2018-12-30T01:27:12.380Z,3.79
2018-12-30T01:28:12.257Z,3.75
2018-12-30T01:29:33.152Z,3.75
2018-12-30T01:30:12.103Z,3.71
2018-12-30T01:31:12.038Z,3.69
2018-12-30T01:32:11.984Z,3.71
2018-12-30T01:33:11.879Z,3.74
2018-12-30T01:34:11.816Z,3.72
2018-12-30T01:35:32.659Z,3.66
2018-12-30T01:36:11.600Z,3.74
2018-12-30T01:37:11.568Z,3.71
2018-12-30T01:38:11.429Z,3.77
2018-12-30T01:39:11.389Z,3.75
2018-12-30T01:40:11.284Z,3.75
2018-12-30T01:41:32.158Z,3.82
2018-12-30T01:42:11.136Z,3.77
2018-12-30T01:43:11.017Z,3.80
2018-12-30T01:44:10.928Z,3.75
2018-12-30T01:45:10.853Z,3.71
2018-12-30T01:46:10.768Z,3.68
2018-12-30T01:47:31.665Z,3.71
2018-12-30T01:48:10.611Z,3.75
2018-12-30T01:49:10.530Z,3.79
2018-12-30T01:50:10.435Z,3.71
2018-12-30T01:51:10.350Z,3.75
2018-12-30T01:52:10.311Z,3.75
2018-12-30T01:53:31.207Z,3.72
2018-12-30T01:54:10.101Z,3.75
2018-12-30T01:55:10.066Z,3.71
2018-12-30T01:56:09.953Z,3.74
2018-12-30T01:57:09.889Z,3.79
2018-12-30T01:58:09.774Z,3.77
2018-12-30T01:59:30.712Z,3.75
2018-12-30T02:00:09.664Z,3.74
2018-12-30T02:01:09.519Z,3.80
2018-12-30T02:02:09.482Z,3.77
2018-12-30T02:03:09.372Z,3.77
2018-12-30T02:04:09.279Z,3.75
2018-12-30T02:05:30.185Z,3.69
2018-12-30T02:06:09.151Z,3.75
2018-12-30T02:07:09.026Z,3.75
2018-12-30T02:08:08.940Z,3.77
2018-12-30T02:09:08.932Z,3.75
2018-12-30T02:10:08.815Z,3.74
2018-12-30T02:11:29.672Z,3.75
2018-12-30T02:12:08.620Z,3.75
2018-12-30T02:13:08.536Z,3.79
2018-12-30T02:14:08.473Z,3.69
2018-12-30T02:15:08.403Z,3.75
2018-12-30T02:16:08.304Z,3.71
2018-12-30T02:17:29.181Z,3.75
2018-12-30T02:18:08.147Z,3.75
2018-12-30T02:19:08.027Z,3.75
2018-12-30T02:20:07.950Z,3.74
2018-12-30T02:21:07.878Z,3.79
2018-12-30T02:22:07.786Z,3.83
2018-12-30T02:23:28.690Z,3.75
2018-12-30T02:24:07.620Z,3.80
2018-12-30T02:25:07.593Z,3.75
2018-12-30T02:26:07.451Z,3.82
2018-12-30T02:27:07.366Z,3.77
2018-12-30T02:28:07.312Z,3.75
2018-12-30T02:29:28.180Z,3.71
2018-12-30T02:30:07.133Z,3.86
2018-12-30T02:31:07.079Z,3.82
2018-12-30T02:32:06.978Z,3.84
2018-12-30T02:33:06.913Z,3.86
2018-12-30T02:34:06.785Z,3.80
2018-12-30T02:35:27.690Z,3.82
2018-12-30T02:36:06.687Z,3.80
2018-12-30T02:37:06.542Z,3.83
2018-12-30T02:38:06.452Z,3.83
2018-12-30T02:39:06.413Z,3.83
2018-12-30T02:40:06.341Z,3.84
2018-12-30T02:41:27.271Z,3.84
2018-12-30T02:42:06.123Z,3.83
2018-12-30T02:43:06.100Z,3.82
2018-12-30T02:44:05.963Z,3.84
2018-12-30T02:45:05.928Z,3.89
2018-12-30T02:46:05.792Z,3.86
2018-12-30T02:47:26.729Z,3.89
2018-12-30T02:48:05.631Z,3.82
2018-12-30T02:49:05.547Z,3.93
2018-12-30T02:50:05.460Z,3.84
2018-12-30T02:51:05.372Z,3.82
2018-12-30T02:52:05.349Z,3.82
2018-12-30T02:53:26.190Z,3.87
2018-12-30T02:54:05.132Z,3.86
2018-12-30T02:55:05.055Z,3.77
2018-12-30T02:56:04.968Z,3.79
2018-12-30T02:57:04.886Z,3.79
2018-12-30T02:58:04.794Z,3.83
2018-12-30T02:59:25.760Z,3.82
2018-12-30T03:00:04.635Z,3.82
2018-12-30T03:01:04.546Z,3.79
2018-12-30T03:02:04.470Z,3.86
2018-12-30T03:03:04.389Z,3.79
2018-12-30T03:04:04.347Z,3.84
2018-12-30T03:05:25.312Z,3.82
2018-12-30T03:06:04.140Z,3.80
2018-12-30T03:07:04.091Z,3.84
2018-12-30T03:08:03.974Z,3.83
2018-12-30T03:09:03.884Z,3.75
2018-12-30T03:10:03.805Z,3.84
2018-12-30T03:11:24.752Z,3.83
2018-12-30T03:12:03.636Z,3.89
2018-12-30T03:13:03.599Z,3.92
2018-12-30T03:14:03.523Z,3.87
2018-12-30T03:15:03.461Z,3.86
2018-12-30T03:16:03.333Z,3.84
2018-12-30T03:17:24.249Z,3.77
2018-12-30T03:18:03.141Z,3.86
2018-12-30T03:19:03.087Z,3.82
2018-12-30T03:20:02.975Z,3.80
2018-12-30T03:21:02.948Z,3.90
2018-12-30T03:22:02.882Z,3.84
2018-12-30T03:23:23.703Z,3.82
2018-12-30T03:24:02.687Z,3.82
2018-12-30T03:25:02.559Z,3.82
2018-12-30T03:26:02.499Z,3.74
2018-12-30T03:27:02.398Z,3.77
2018-12-30T03:28:02.323Z,3.82
2018-12-30T03:29:23.213Z,3.80
2018-12-30T03:30:02.144Z,3.83
2018-12-30T03:31:02.126Z,3.84
2018-12-30T03:32:02.052Z,3.84
2018-12-30T03:33:01.945Z,3.87
2018-12-30T03:34:01.814Z,3.87
2018-12-30T03:35:22.751Z,3.86
2018-12-30T03:36:01.653Z,3.89
2018-12-30T03:37:01.604Z,3.93
2018-12-30T03:38:01.544Z,3.87
2018-12-30T03:39:01.425Z,3.82
2018-12-30T03:40:01.334Z,3.83
2018-12-30T03:41:22.258Z,3.83
2018-12-30T03:42:01.208Z,3.86
2018-12-30T03:43:01.075Z,3.86
2018-12-30T03:44:00.991Z,3.75
2018-12-30T03:45:00.940Z,3.77
2018-12-30T03:46:00.882Z,3.75
2018-12-30T03:47:21.712Z,3.79
2018-12-30T03:48:00.656Z,3.89
2018-12-30T03:49:00.620Z,3.84
2018-12-30T03:50:00.527Z,3.77
2018-12-30T03:51:00.413Z,3.84
2018-12-30T03:52:07.982Z,3.77
2018-12-30T03:53:21.266Z,3.82
2018-12-30T03:54:00.153Z,3.83
2018-12-30T03:55:00.160Z,3.82
2018-12-30T03:55:59.998Z,3.77
2018-12-30T03:56:59.916Z,3.83
2018-12-30T03:57:59.849Z,3.83
2018-12-30T03:59:20.720Z,3.74
2018-12-30T03:59:59.659Z,3.80
2018-12-30T04:00:59.585Z,3.83
2018-12-30T04:01:59.500Z,3.80
2018-12-30T04:02:59.454Z,3.75
2018-12-30T04:03:59.340Z,3.74
2018-12-30T04:05:20.256Z,3.79
2018-12-30T04:05:59.178Z,3.77
2018-12-30T04:06:59.136Z,3.84
2018-12-30T04:07:59.013Z,3.74
2018-12-30T04:08:58.976Z,3.79
2018-12-30T04:09:58.879Z,3.82
2018-12-30T04:11:19.767Z,3.83
2018-12-30T04:11:58.677Z,3.77
2018-12-30T04:12:58.621Z,3.84
2018-12-30T04:13:58.532Z,3.82
2018-12-30T04:14:58.416Z,3.94
2018-12-30T04:15:58.387Z,3.86
2018-12-30T04:17:19.239Z,3.86
2018-12-30T04:17:58.203Z,3.90
2018-12-30T04:18:58.101Z,3.94
2018-12-30T04:19:58.019Z,3.90
2018-12-30T04:20:57.958Z,3.90
2018-12-30T04:21:57.868Z,3.87
2018-12-30T04:23:18.736Z,3.86
2018-12-30T04:23:57.677Z,3.90
2018-12-30T04:24:57.630Z,3.92
2018-12-30T04:25:57.515Z,4.01
2018-12-30T04:26:57.448Z,3.98
2018-12-30T04:27:57.342Z,3.98
2018-12-30T04:29:18.239Z,3.94
2018-12-30T04:29:57.262Z,4.00
2018-12-30T04:30:57.152Z,4.01
2018-12-30T04:31:57.017Z,4.04
2018-12-30T04:32:56.936Z,3.97
2018-12-30T04:33:56.846Z,4.02
2018-12-30T04:35:17.774Z,4.01
2018-12-30T04:35:56.692Z,4.02
2018-12-30T04:36:56.635Z,4.04
2018-12-30T04:37:56.563Z,4.08
2018-12-30T04:38:56.439Z,4.08
2018-12-30T04:39:56.364Z,4.11
2018-12-30T04:41:17.295Z,4.11
2018-12-30T04:41:56.199Z,4.08
2018-12-30T04:42:56.140Z,4.16
2018-12-30T04:43:56.072Z,4.11
2018-12-30T04:44:55.988Z,4.02
2018-12-30T04:45:55.905Z,4.08
2018-12-30T04:47:16.782Z,4.12
2018-12-30T04:47:55.689Z,4.07
2018-12-30T04:48:55.612Z,4.12
2018-12-30T04:49:55.534Z,4.12
2018-12-30T04:50:55.441Z,4.23
2018-12-30T04:51:55.357Z,4.16
2018-12-30T04:53:16.296Z,4.19
2018-12-30T04:53:55.191Z,4.26
2018-12-30T04:54:55.110Z,4.22
2018-12-30T04:55:55.033Z,4.20
2018-12-30T04:56:54.988Z,4.18
2018-12-30T04:57:54.879Z,4.30
2018-12-30T04:59:15.755Z,4.30
2018-12-30T04:59:54.748Z,4.28
2018-12-30T05:00:54.616Z,4.36
2018-12-30T05:01:54.537Z,4.38
2018-12-30T05:02:54.503Z,4.37
2018-12-30T05:03:54.364Z,4.40
2018-12-30T05:05:15.267Z,4.41
2018-12-30T05:05:54.202Z,4.44
2018-12-30T05:06:54.119Z,4.48
2018-12-30T05:07:54.040Z,4.46
2018-12-30T05:08:53.955Z,4.50
2018-12-30T05:09:53.871Z,4.52
2018-12-30T05:11:14.818Z,4.52
2018-12-30T05:11:53.722Z,4.54
2018-12-30T05:12:53.681Z,4.52
2018-12-30T05:13:53.545Z,4.56
2018-12-30T05:14:53.489Z,4.55
2018-12-30T05:15:53.409Z,4.55
2018-12-30T05:17:14.286Z,4.56
2018-12-30T05:17:53.210Z,4.59
2018-12-30T05:18:53.132Z,4.64
2018-12-30T05:19:53.044Z,4.66
2018-12-30T05:20:53.001Z,4.59
2018-12-30T05:21:52.934Z,4.58
2018-12-30T05:23:13.785Z,4.58
2018-12-30T05:23:52.733Z,4.61
2018-12-30T05:24:52.637Z,4.68
2018-12-30T05:25:52.616Z,4.56
2018-12-30T05:26:52.468Z,4.66
2018-12-30T05:27:52.392Z,4.66
2018-12-30T05:29:13.287Z,4.69
2018-12-30T05:29:52.325Z,4.62
2018-12-30T05:30:52.186Z,4.69
2018-12-30T05:31:52.065Z,4.64
2018-12-30T05:32:51.976Z,4.76
2018-12-30T05:33:51.948Z,4.76
2018-12-30T05:35:12.787Z,4.74
2018-12-30T05:35:51.745Z,4.69
2018-12-30T05:36:51.701Z,4.76
2018-12-30T05:37:51.575Z,4.74
2018-12-30T05:38:51.483Z,4.74
2018-12-30T05:39:51.460Z,4.74
2018-12-30T05:41:12.339Z,4.74
2018-12-30T05:41:51.283Z,4.65
2018-12-30T05:42:51.186Z,4.77
2018-12-30T05:43:51.146Z,4.72
2018-12-30T05:44:51.052Z,4.73
2018-12-30T05:45:50.903Z,4.74
2018-12-30T05:47:11.797Z,4.87
2018-12-30T05:47:50.765Z,4.73
2018-12-30T05:48:50.712Z,4.85
2018-12-30T05:49:50.596Z,4.84
2018-12-30T05:50:50.528Z,4.77
2018-12-30T05:51:50.435Z,4.84
2018-12-30T05:53:11.318Z,4.83
2018-12-30T05:53:50.248Z,4.91
2018-12-30T05:54:50.167Z,4.87
2018-12-30T05:55:50.153Z,4.85
2018-12-30T05:56:50.047Z,4.85
2018-12-30T05:57:51.804Z,4.91
2018-12-30T05:59:10.860Z,4.95
2018-12-30T05:59:49.783Z,4.95
2018-12-30T06:00:49.671Z,4.95
2018-12-30T06:01:49.623Z,4.95
2018-12-30T06:02:49.505Z,4.96
2018-12-30T06:03:49.427Z,5.00
2018-12-30T06:05:10.334Z,4.91
2018-12-30T06:05:49.292Z,4.98
2018-12-30T06:06:49.194Z,5.05
2018-12-30T06:07:49.101Z,5.00
2018-12-30T06:08:49.015Z,5.05
2018-12-30T06:09:48.981Z,5.05
2018-12-30T06:11:09.843Z,5.00
2018-12-30T06:11:48.764Z,5.06
2018-12-30T06:12:48.683Z,5.05
2018-12-30T06:13:48.634Z,5.10
2018-12-30T06:14:48.517Z,5.10
2018-12-30T06:15:48.437Z,5.05
2018-12-30T06:17:09.335Z,5.06
2018-12-30T06:17:48.336Z,5.05
2018-12-30T06:18:48.193Z,5.14
2018-12-30T06:19:48.108Z,5.20
2018-12-30T06:20:48.019Z,5.11
2018-12-30T06:21:47.983Z,5.10
2018-12-30T06:23:08.850Z,5.23
2018-12-30T06:23:47.786Z,5.17
2018-12-30T06:24:47.713Z,5.26
2018-12-30T06:25:47.617Z,5.16
2018-12-30T06:26:47.540Z,5.18
2018-12-30T06:27:47.448Z,5.23
2018-12-30T06:29:08.348Z,5.26
2018-12-30T06:29:47.329Z,5.28
2018-12-30T06:30:47.209Z,5.17
2018-12-30T06:31:47.175Z,5.16
2018-12-30T06:32:47.105Z,5.20
2018-12-30T06:33:46.953Z,5.16
2018-12-30T06:35:07.862Z,5.23
2018-12-30T06:35:46.800Z,5.24
2018-12-30T06:36:46.710Z,5.24
2018-12-30T06:37:46.626Z,5.20
2018-12-30T06:38:46.545Z,5.23
2018-12-30T06:39:46.504Z,5.21
2018-12-30T06:41:07.363Z,5.23
2018-12-30T06:41:46.296Z,5.24
2018-12-30T06:42:46.268Z,5.17
2018-12-30T06:43:46.212Z,5.24
2018-12-30T06:44:46.108Z,5.24
2018-12-30T06:45:46.008Z,5.34
2018-12-30T06:47:06.868Z,5.31
2018-12-30T06:47:45.823Z,5.32
2018-12-30T06:48:45.784Z,5.28
2018-12-30T06:49:45.667Z,5.29
2018-12-30T06:50:45.614Z,5.28
2018-12-30T06:51:45.546Z,5.29
2018-12-30T06:53:06.436Z,5.29
2018-12-30T06:53:45.355Z,5.34
2018-12-30T06:54:45.240Z,5.32
2018-12-30T06:55:45.148Z,5.36
2018-12-30T06:56:45.102Z,5.31
2018-12-30T06:57:45.049Z,5.32
2018-12-30T06:59:05.892Z,5.34
2018-12-30T06:59:44.821Z,5.31
2018-12-30T07:00:44.748Z,5.29
2018-12-30T07:01:44.659Z,5.32
2018-12-30T07:02:44.601Z,5.29
2018-12-30T07:03:44.494Z,5.31
2018-12-30T07:05:05.397Z,5.36
2018-12-30T07:05:44.397Z,5.35
2018-12-30T07:06:44.289Z,5.34
2018-12-30T07:07:44.171Z,5.36
2018-12-30T07:08:44.091Z,5.44
2018-12-30T07:09:44.003Z,5.45
2018-12-30T07:11:04.946Z,5.42
2018-12-30T07:11:43.883Z,5.38
2018-12-30T07:12:43.761Z,5.38
2018-12-30T07:13:43.673Z,5.44
2018-12-30T07:14:43.591Z,5.49
2018-12-30T07:15:43.529Z,5.34
2018-12-30T07:17:04.409Z,5.42
2018-12-30T07:17:43.377Z,5.42
2018-12-30T07:18:43.310Z,5.44
2018-12-30T07:19:43.233Z,5.41
2018-12-30T07:20:43.114Z,5.42
2018-12-30T07:21:43.016Z,5.45
2018-12-30T07:23:06.026Z,5.42
2018-12-30T07:23:42.901Z,5.53
2018-12-30T07:24:42.807Z,5.53
2018-12-30T07:27:36.340Z,5.54
2018-12-30T07:28:15.266Z,5.54
2018-12-30T07:29:15.190Z,5.60
2018-12-30T07:30:15.106Z,5.53
2018-12-30T07:31:15.049Z,5.57
2018-12-30T07:32:14.939Z,5.52
2018-12-30T07:33:14.859Z,5.50
2018-12-30T07:34:14.899Z,5.57
2018-12-30T07:35:14.692Z,5.60
2018-12-30T07:36:14.708Z,5.68
2018-12-30T07:37:14.533Z,5.65
2018-12-30T07:38:14.514Z,5.63
2018-12-30T07:39:14.363Z,5.56
2018-12-30T07:40:14.392Z,5.57
2018-12-30T07:41:14.201Z,5.63
2018-12-30T07:42:14.203Z,5.56
2018-12-30T07:43:14.039Z,5.57
2018-12-30T07:44:14.008Z,5.59
2018-12-30T07:45:14.824Z,5.53
2018-12-30T07:46:14.360Z,5.57
2018-12-30T07:47:13.827Z,5.56
2018-12-30T07:48:13.634Z,5.59
2018-12-30T07:49:13.632Z,5.67
2018-12-30T07:50:13.467Z,5.57
2018-12-30T07:51:14.970Z,5.63
2018-12-30T07:52:13.309Z,5.68
2018-12-30T07:53:13.817Z,5.63
2018-12-30T07:54:13.143Z,5.59
2018-12-30T07:55:13.198Z,5.70
2018-12-30T07:56:12.974Z,5.71
2018-12-30T07:57:12.967Z,5.68
2018-12-30T07:58:12.811Z,5.74
2018-12-30T07:59:12.780Z,5.77
2018-12-30T08:00:12.653Z,5.75
2018-12-30T08:01:12.566Z,5.70
2018-12-30T08:02:12.485Z,5.72
2018-12-30T08:03:12.540Z,5.70
2018-12-30T08:04:12.315Z,5.80
2018-12-30T08:05:12.356Z,5.74
2018-12-30T08:06:12.156Z,5.71
2018-12-30T08:07:12.159Z,5.78
2018-12-30T08:08:11.990Z,5.88
2018-12-30T08:09:12.071Z,5.81
2018-12-30T08:10:11.828Z,5.85
2018-12-30T08:11:11.879Z,5.83
2018-12-30T08:12:13.413Z,5.83
2018-12-30T08:13:13.904Z,5.86
2018-12-30T08:14:11.816Z,5.88
2018-12-30T08:15:11.436Z,5.85
2018-12-30T08:16:11.340Z,5.83
2018-12-30T08:17:11.406Z,5.83
2018-12-30T08:18:11.181Z,5.88
2018-12-30T08:19:11.218Z,5.83
2018-12-30T08:20:11.013Z,5.85
2018-12-30T08:21:11.027Z,5.85
2018-12-30T08:22:10.846Z,5.83
2018-12-30T08:23:10.845Z,5.83
2018-12-30T08:24:10.689Z,5.80
2018-12-30T08:25:10.606Z,5.89
2018-12-30T08:26:10.523Z,5.85
2018-12-30T08:27:10.556Z,5.80
2018-12-30T08:28:10.368Z,5.81
2018-12-30T08:29:10.366Z,5.83
2018-12-30T08:30:10.205Z,5.83
2018-12-30T08:31:10.114Z,5.83
2018-12-30T08:32:10.030Z,5.81
2018-12-30T08:33:10.082Z,5.83
2018-12-30T08:34:09.871Z,5.85
2018-12-30T08:35:09.897Z,5.80
2018-12-30T08:36:09.703Z,5.81
2018-12-30T08:37:09.708Z,5.88
2018-12-30T08:38:09.541Z,5.83
2018-12-30T08:39:09.622Z,5.83
2018-12-30T08:40:09.378Z,5.86
2018-12-30T08:41:09.368Z,5.81
2018-12-30T08:42:09.217Z,5.83
2018-12-30T08:43:09.139Z,5.92
2018-12-30T08:44:09.150Z,5.88
2018-12-30T08:45:08.968Z,5.85
2018-12-30T08:46:09.048Z,5.88
2018-12-30T08:47:08.808Z,5.89
2018-12-30T08:48:08.860Z,5.95
2018-12-30T08:49:08.642Z,5.92
2018-12-30T08:50:08.668Z,5.96
2018-12-30T08:51:10.280Z,5.92
2018-12-30T08:52:08.399Z,5.95
2018-12-30T08:53:08.316Z,5.99
2018-12-30T08:54:08.243Z,6.03
2018-12-30T08:55:08.292Z,6.04
2018-12-30T08:56:08.070Z,6.00
2018-12-30T08:57:08.104Z,5.93
2018-12-30T08:58:07.909Z,5.99
2018-12-30T08:59:07.825Z,6.07
2018-12-30T09:00:07.747Z,6.04
2018-12-30T09:01:07.764Z,6.03
2018-12-30T09:02:07.583Z,5.99
2018-12-30T09:03:07.570Z,5.99
2018-12-30T09:04:07.418Z,5.93
2018-12-30T09:05:07.376Z,6.06
2018-12-30T09:06:07.262Z,6.08
2018-12-30T09:07:07.175Z,6.07
2018-12-30T09:08:07.096Z,5.97
2018-12-30T09:09:07.162Z,6.04
2018-12-30T09:10:06.928Z,6.04
2018-12-30T09:11:06.969Z,6.06
2018-12-30T09:12:06.766Z,6.03
2018-12-30T09:13:06.776Z,6.04
2018-12-30T09:14:06.605Z,6.15
2018-12-30T09:15:06.691Z,6.10
2018-12-30T09:16:06.442Z,6.07
2018-12-30T09:17:06.497Z,6.10
2018-12-30T09:18:06.277Z,6.13
2018-12-30T09:19:06.310Z,6.15
2018-12-30T09:20:06.116Z,6.13
2018-12-30T09:21:06.219Z,6.18
2018-12-30T09:22:05.955Z,6.22
2018-12-30T09:23:06.027Z,6.21
2018-12-30T09:24:05.790Z,6.22
2018-12-30T09:25:05.844Z,6.22
2018-12-30T09:26:05.628Z,6.26
2018-12-30T09:27:05.653Z,6.27
2018-12-30T09:28:05.463Z,6.18
2018-12-30T09:29:05.387Z,6.22
2018-12-30T09:30:05.302Z,6.17
2018-12-30T09:31:05.370Z,6.21
2018-12-30T09:32:05.144Z,6.22
2018-12-30T09:33:05.178Z,6.27
2018-12-30T09:34:04.979Z,6.22
2018-12-30T09:35:04.986Z,6.32
2018-12-30T09:36:04.813Z,6.29
2018-12-30T09:37:04.737Z,6.30
2018-12-30T09:38:04.804Z,6.34
2018-12-30T09:39:04.567Z,6.33
2018-12-30T09:40:04.489Z,6.39
2018-12-30T09:41:04.404Z,6.33
2018-12-30T09:42:04.421Z,6.36
2018-12-30T09:43:04.242Z,6.34
2018-12-30T09:44:04.330Z,6.42
2018-12-30T09:45:04.082Z,6.37
2018-12-30T09:46:04.140Z,6.37
2018-12-30T09:47:03.915Z,6.39
2018-12-30T09:48:03.952Z,6.39
2018-12-30T09:49:03.756Z,6.37
2018-12-30T09:50:03.867Z,6.41
2018-12-30T09:51:03.588Z,6.39
2018-12-30T09:52:03.670Z,6.44
2018-12-30T09:53:03.428Z,6.54
2018-12-30T09:54:03.480Z,6.47
2018-12-30T09:55:03.264Z,6.42
2018-12-30T09:56:03.292Z,6.48
2018-12-30T09:57:03.111Z,6.54
2018-12-30T09:58:03.201Z,6.60
2018-12-30T09:59:02.941Z,6.59
2018-12-30T10:00:03.010Z,6.62
2018-12-30T10:01:02.778Z,6.62
2018-12-30T10:02:02.816Z,6.60
2018-12-30T10:03:02.614Z,6.69
2018-12-30T10:04:02.531Z,6.84
2018-12-30T10:05:02.450Z,6.86
2018-12-30T10:06:02.536Z,6.87
2018-12-30T10:07:02.288Z,6.84
2018-12-30T10:08:02.290Z,6.96
2018-12-30T10:09:02.127Z,6.87
2018-12-30T10:10:02.161Z,6.87
2018-12-30T10:11:01.968Z,6.87
2018-12-30T10:12:02.069Z,6.78
2018-12-30T10:13:01.802Z,6.87
2018-12-30T10:14:01.880Z,6.80
2018-12-30T10:15:09.302Z,6.78
2018-12-30T10:16:01.556Z,6.78
2018-12-30T10:17:01.603Z,6.78
2018-12-30T10:18:01.397Z,6.84
2018-12-30T10:19:01.499Z,6.88
2018-12-30T10:20:01.243Z,6.93
2018-12-30T10:21:01.311Z,6.94
2018-12-30T10:22:01.071Z,6.91
2018-12-30T10:23:01.121Z,6.90
2018-12-30T10:24:00.908Z,6.94
2018-12-30T10:25:01.034Z,6.90
2018-12-30T10:26:00.748Z,6.90
2018-12-30T10:27:00.842Z,6.88
2018-12-30T10:28:00.585Z,6.93
2018-12-30T10:29:00.653Z,6.96
2018-12-30T10:30:00.422Z,6.99
2018-12-30T10:31:00.457Z,7.01
2018-12-30T10:32:00.261Z,6.99
2018-12-30T10:33:00.180Z,7.05
2018-12-30T10:34:00.103Z,6.93
2018-12-30T10:35:00.182Z,7.02
2018-12-30T10:35:59.948Z,7.05
2018-12-30T10:36:59.990Z,7.08
2018-12-30T10:37:59.775Z,7.20
2018-12-30T10:38:59.905Z,7.16
2018-12-30T10:39:59.614Z,7.20
2018-12-30T10:40:59.709Z,7.17
2018-12-30T10:41:59.455Z,7.16
2018-12-30T10:42:59.597Z,7.19
2018-12-30T10:43:59.290Z,7.19
2018-12-30T10:44:59.329Z,7.19
2018-12-30T10:45:59.129Z,7.19
2018-12-30T10:46:59.070Z,7.13
2018-12-30T10:47:59.149Z,7.17
2018-12-30T10:48:58.889Z,7.21
2018-12-30T10:49:59.035Z,7.21
2018-12-30T10:50:58.722Z,7.23
2018-12-30T10:51:58.757Z,7.34
2018-12-30T10:52:58.562Z,7.29
2018-12-30T10:54:00.792Z,7.24
2018-12-30T10:54:58.398Z,7.30
2018-12-30T10:55:58.483Z,7.31
2018-12-30T10:56:58.243Z,7.35
2018-12-30T10:57:58.291Z,7.34
2018-12-30T10:58:58.072Z,7.29
2018-12-30T10:59:58.204Z,7.20
2018-12-30T11:00:57.923Z,7.29
2018-12-30T11:01:57.840Z,7.19
2018-12-30T11:02:57.754Z,7.17
2018-12-30T11:03:57.820Z,7.12
2018-12-30T11:04:57.591Z,7.12
2018-12-30T11:05:57.731Z,7.16
2018-12-30T11:06:57.431Z,7.20
2018-12-30T11:07:57.539Z,7.19
2018-12-30T11:08:57.270Z,7.19
2018-12-30T11:09:57.348Z,7.16
2018-12-30T11:10:57.109Z,7.12
2018-12-30T11:11:57.158Z,7.11
2018-12-30T11:12:56.949Z,7.12
2018-12-30T11:13:57.075Z,7.08
2018-12-30T11:14:56.785Z,7.05
2018-12-30T11:15:56.879Z,7.17
2018-12-30T11:16:56.623Z,7.13
2018-12-30T11:17:56.689Z,7.20
2018-12-30T11:18:56.462Z,7.11
2018-12-30T11:19:56.599Z,7.20
2018-12-30T11:20:56.303Z,7.30
2018-12-30T11:21:56.408Z,7.42
2018-12-30T11:22:56.140Z,7.64
2018-12-30T11:23:56.216Z,7.53
2018-12-30T11:24:55.980Z,7.81
2018-12-30T11:25:56.022Z,7.93
2018-12-30T11:26:55.817Z,7.93
2018-12-30T11:27:55.937Z,8.00
2018-12-30T11:28:55.654Z,7.97
2018-12-30T11:29:55.746Z,8.00
2018-12-30T11:30:55.495Z,7.93
2018-12-30T11:31:55.467Z,7.79
2018-12-30T11:32:55.333Z,7.86
2018-12-30T11:33:55.464Z,7.70
2018-12-30T11:34:55.174Z,7.72
2018-12-30T11:35:55.179Z,7.76
2018-12-30T11:36:55.012Z,7.79
2018-12-30T11:37:54.978Z,7.70
2018-12-30T11:38:54.851Z,7.67
2018-12-30T11:39:54.895Z,7.57
2018-12-30T11:40:54.692Z,7.57
2018-12-30T11:41:54.899Z,7.60
2018-12-30T11:42:54.534Z,7.47
2018-12-30T11:43:54.518Z,7.60
2018-12-30T11:44:54.374Z,7.49
2018-12-30T11:45:54.320Z,7.55
2018-12-30T11:46:54.209Z,7.44
2018-12-30T11:47:54.132Z,7.44
2018-12-30T11:48:54.136Z,7.44
2018-12-30T11:49:53.967Z,7.59
2018-12-30T11:50:53.945Z,7.55
2018-12-30T11:51:53.806Z,7.55
2018-12-30T11:52:53.856Z,7.39
2018-12-30T11:53:53.648Z,7.44
2018-12-30T11:54:53.669Z,7.42
2018-12-30T11:55:53.544Z,7.47
2018-12-30T11:56:53.403Z,7.52
2018-12-30T11:57:53.378Z,7.47
2018-12-30T11:58:53.388Z,7.57
2018-12-30T11:59:53.295Z,7.57
2018-12-30T12:00:53.086Z,7.39
2018-12-30T12:01:53.004Z,7.52
2018-12-30T12:02:53.005Z,7.57
2018-12-30T12:03:52.845Z,7.56
2018-12-30T12:04:52.816Z,7.53
2018-12-30T12:05:52.678Z,7.53
2018-12-30T12:06:52.725Z,7.45
2018-12-30T12:07:52.520Z,7.45
2018-12-30T12:08:52.535Z,7.44
2018-12-30T12:09:52.359Z,7.47
2018-12-30T12:10:52.275Z,7.42
2018-12-30T12:11:52.194Z,7.47
2018-12-30T12:12:52.264Z,7.45
2018-12-30T12:13:52.034Z,7.44
2018-12-30T12:14:51.956Z,7.41
2018-12-30T12:15:51.877Z,7.34
2018-12-30T12:16:51.794Z,7.34
2018-12-30T12:17:51.778Z,7.38
2018-12-30T12:18:51.640Z,7.34
2018-12-30T12:19:51.554Z,7.38
2018-12-30T12:20:51.473Z,7.35
2018-12-30T12:21:51.405Z,7.37
2018-12-30T12:22:51.310Z,7.37
2018-12-30T12:23:51.362Z,7.34
2018-12-30T12:24:51.213Z,7.37
2018-12-30T12:25:51.071Z,7.35
2018-12-30T12:26:51.135Z,7.41
2018-12-30T12:27:50.905Z,7.34
2018-12-30T12:28:50.986Z,7.29
2018-12-30T12:29:50.750Z,7.31
2018-12-30T12:30:50.741Z,7.31
2018-12-30T12:31:50.587Z,7.34
2018-12-30T12:32:50.658Z,7.24
2018-12-30T12:33:50.426Z,7.37
2018-12-30T12:34:50.464Z,7.31
2018-12-30T12:35:50.263Z,7.30
2018-12-30T12:36:50.302Z,7.31
2018-12-30T12:37:50.358Z,7.35
2018-12-30T12:38:50.303Z,7.24
2018-12-30T12:39:50.095Z,7.21
2018-12-30T12:40:49.899Z,7.21
2018-12-30T12:41:51.580Z,7.23
2018-12-30T12:42:49.789Z,7.30
2018-12-30T12:43:49.778Z,7.30
2018-12-30T12:44:49.612Z,7.24
2018-12-30T12:45:49.616Z,7.27
2018-12-30T12:46:49.383Z,7.23
2018-12-30T12:47:49.886Z,7.19
2018-12-30T12:48:50.095Z,7.09
2018-12-30T12:49:49.180Z,7.21
2018-12-30T12:50:49.140Z,7.06
2018-12-30T12:51:49.009Z,7.09
2018-12-30T12:52:49.056Z,7.09
2018-12-30T12:53:48.864Z,7.17
2018-12-30T12:54:48.855Z,7.08
2018-12-30T12:55:49.101Z,7.20
2018-12-30T12:56:48.668Z,7.20
2018-12-30T12:57:48.490Z,7.20
2018-12-30T12:58:48.412Z,7.11
2018-12-30T12:59:48.481Z,7.19
2018-12-30T13:00:48.260Z,7.06
2018-12-30T13:01:48.295Z,7.06
2018-12-30T13:02:48.094Z,7.05
2018-12-30T13:03:48.097Z,7.05
2018-12-30T13:04:47.926Z,7.06
2018-12-30T13:05:47.920Z,7.12
2018-12-30T13:06:47.764Z,7.16
2018-12-30T13:07:47.822Z,7.06
2018-12-30T13:08:47.607Z,7.06
2018-12-30T13:09:47.628Z,7.09
2018-12-30T13:10:47.447Z,6.94
2018-12-30T13:11:47.732Z,7.06
2018-12-30T13:12:47.313Z,7.01
2018-12-30T13:13:47.204Z,7.13
2018-12-30T13:14:47.256Z,6.99
2018-12-30T13:15:47.041Z,7.13
2018-12-30T13:16:46.964Z,7.11
2018-12-30T13:17:46.953Z,6.98
2018-12-30T13:18:46.800Z,7.05